Time;durP1;ratioP1;P1;durP2;ratioP2;P2;SDS_P1;SDS_P2;PMS_P1;PMS_P2;Temp;Humidity;BMP_temperature;BMP_pressure;BME280_temperature;BME280_humidity;BME280_pressure;Samples;Min_cycle;Max_cycle;Signal;HPM_P1;HPM_P2
2022/08/14 00:00:13;;;;;;;2.88;2.58;;;20.70;99.90;;;;;;5030057;28;36409;-84
2022/08/14 00:02:40;;;;;;;4.15;3.15;;;20.60;99.90;;;;;;5032594;28;39876;-84
2022/08/14 00:05:14;;;;;;;3.55;3.22;;;20.70;99.90;;;;;;5034356;28;38599;-84
2022/08/14 00:07:40;;;;;;;3.47;3.10;;;20.60;99.90;;;;;;5047217;28;37568;-85
2022/08/14 00:10:10;;;;;;;4.30;3.58;;;20.60;99.90;;;;;;5052100;27;36108;-84
2022/08/14 00:12:39;;;;;;;4.90;3.25;;;20.50;99.90;;;;;;5034636;28;40163;-84
2022/08/14 00:15:18;;;;;;;3.17;2.80;;;20.50;99.90;;;;;;5033589;28;36979;-85
2022/08/14 00:17:46;;;;;;;4.85;2.92;;;20.50;99.90;;;;;;5045280;27;38989;-84
2022/08/14 00:20:13;;;;;;;3.45;3.10;;;20.40;99.90;;;;;;5033511;28;38115;-84
2022/08/14 00:22:39;;;;;;;5.70;3.65;;;20.50;99.90;;;;;;5031312;28;37403;-84
2022/08/14 00:25:10;;;;;;;4.82;3.67;;;20.40;99.90;;;;;;5032469;28;37714;-84
2022/08/14 00:27:38;;;;;;;5.63;4.45;;;20.40;99.90;;;;;;5032553;28;37472;-83
2022/08/14 00:30:07;;;;;;;3.90;3.50;;;20.40;99.90;;;;;;5040358;28;36181;-86
2022/08/14 00:32:36;;;;;;;3.78;3.42;;;20.40;99.90;;;;;;5040240;28;37458;-85
2022/08/14 00:35:04;;;;;;;4.18;3.30;;;20.40;99.90;;;;;;5035095;28;37835;-86
2022/08/14 00:37:31;;;;;;;4.72;3.63;;;20.30;99.90;;;;;;5036178;28;37005;-86
2022/08/14 00:39:58;;;;;;;4.53;3.55;;;20.30;99.90;;;;;;5035044;27;36936;-83
2022/08/14 00:42:24;;;;;;;4.15;3.00;;;20.30;99.90;;;;;;5033023;27;40440;-85
2022/08/14 00:44:51;;;;;;;5.72;3.30;;;20.30;99.90;;;;;;5032887;28;39125;-84
2022/08/14 00:47:18;;;;;;;2.72;2.53;;;20.30;99.90;;;;;;5034639;27;37801;-84
2022/08/14 00:49:44;;;;;;;3.47;2.88;;;20.20;99.90;;;;;;5031529;28;37371;-85
2022/08/14 00:52:13;;;;;;;3.85;3.00;;;20.20;99.90;;;;;;5031012;28;38893;-84
2022/08/14 00:54:41;;;;;;;4.07;2.75;;;20.20;99.90;;;;;;5048665;28;39172;-84
2022/08/14 00:57:07;;;;;;;3.78;2.67;;;20.20;99.90;;;;;;5063225;28;36676;-85
2022/08/14 00:59:34;;;;;;;3.10;2.80;;;20.20;99.90;;;;;;5033312;28;38967;-85
2022/08/14 01:02:01;;;;;;;3.35;3.05;;;20.20;99.90;;;;;;5022476;28;39041;-85
2022/08/14 01:04:30;;;;;;;3.17;2.75;;;20.30;99.90;;;;;;5032790;28;45961;-85
2022/08/14 01:06:57;;;;;;;3.53;3.05;;;20.30;99.90;;;;;;5028611;28;38634;-83
2022/08/14 01:09:24;;;;;;;3.95;2.50;;;20.30;99.90;;;;;;5015001;28;36743;-85
2022/08/14 01:11:51;;;;;;;3.53;2.55;;;20.30;99.90;;;;;;5017701;28;39475;-83
2022/08/14 01:14:19;;;;;;;5.78;3.05;;;20.40;99.90;;;;;;5046651;28;39877;-85
2022/08/14 01:16:46;;;;;;;4.18;3.05;;;20.40;99.90;;;;;;5042574;28;39609;-85
2022/08/14 01:21:58;;;;;;;3.53;3.03;;;20.50;99.90;;;;;;5012863;28;39605;-84
2022/08/14 01:24:25;;;;;;;4.03;2.47;;;20.60;99.90;;;;;;5011254;28;39313;-84
2022/08/14 01:26:52;;;;;;;5.60;3.20;;;20.60;99.90;;;;;;5014003;28;38899;-84
2022/08/14 01:29:19;;;;;;;5.45;2.92;;;20.60;99.90;;;;;;5012091;28;36212;-86
2022/08/14 01:31:49;;;;;;;5.55;3.03;;;20.70;99.90;;;;;;5014895;28;39535;-84
2022/08/14 01:34:15;;;;;;;3.75;2.85;;;20.70;99.90;;;;;;5015154;28;38514;-85
2022/08/14 01:36:41;;;;;;;2.88;2.63;;;20.70;99.90;;;;;;5015649;28;39793;-84
2022/08/14 01:39:13;;;;;;;3.45;2.78;;;20.70;99.90;;;;;;5017758;28;37780;-85
2022/08/14 01:41:42;;;;;;;3.78;3.00;;;20.70;99.90;;;;;;5013334;28;38225;-84
2022/08/14 01:44:12;;;;;;;3.80;2.88;;;20.80;99.90;;;;;;5029091;28;39558;-85
2022/08/14 01:46:42;;;;;;;5.18;3.25;;;20.90;99.90;;;;;;5011989;28;37893;-87
2022/08/14 01:49:14;;;;;;;3.08;2.78;;;20.90;99.90;;;;;;5018512;28;38011;-80
2022/08/14 01:51:42;;;;;;;3.00;2.53;;;20.90;99.90;;;;;;5018224;28;38460;-83
2022/08/14 01:54:11;;;;;;;4.03;3.33;;;20.80;99.90;;;;;;5019466;28;39772;-85
2022/08/14 01:56:38;;;;;;;3.97;3.08;;;20.70;99.90;;;;;;5054678;28;39273;-84
2022/08/14 01:59:20;;;;;;;3.95;3.20;;;20.70;99.90;;;;;;5017162;28;37462;-84
2022/08/14 02:01:50;;;;;;;3.58;3.28;;;20.60;99.90;;;;;;5010484;28;37637;-83
2022/08/14 02:04:20;;;;;;;3.58;3.28;;;20.50;99.90;;;;;;5009013;28;39450;-84
2022/08/14 02:06:51;;;;;;;4.18;3.17;;;20.40;99.90;;;;;;5025837;28;36815;-84
2022/08/14 02:09:19;;;;;;;4.50;3.35;;;20.30;99.90;;;;;;5015358;28;37882;-84
2022/08/14 02:11:45;;;;;;;3.83;3.42;;;20.30;99.90;;;;;;5014027;28;38884;-84
2022/08/14 02:14:13;;;;;;;4.22;3.75;;;20.40;99.90;;;;;;5010426;28;39230;-84
2022/08/14 02:16:51;;;;;;;7.93;3.80;;;20.40;99.90;;;;;;5012820;28;38166;-83
2022/08/14 02:19:21;;;;;;;5.53;3.70;;;20.40;99.90;;;;;;5012909;28;37690;-85
2022/08/14 02:21:50;;;;;;;7.15;3.83;;;20.40;99.90;;;;;;5010911;28;40839;-84
2022/08/14 02:24:19;;;;;;;5.75;3.35;;;20.40;99.90;;;;;;5006475;28;39071;-85
2022/08/14 02:26:46;;;;;;;4.35;3.60;;;20.40;99.90;;;;;;5019075;28;39757;-85
2022/08/14 02:29:16;;;;;;;3.30;3.00;;;20.40;99.90;;;;;;5016244;28;35718;-85
2022/08/14 02:31:48;;;;;;;5.38;3.95;;;20.40;99.90;;;;;;5022933;28;38388;-85
2022/08/14 02:34:23;;;;;;;5.73;4.37;;;20.40;99.90;;;;;;5055237;27;39785;-84
2022/08/14 02:36:51;;;;;;;4.18;3.78;;;20.30;99.90;;;;;;5022231;28;38352;-86
2022/08/14 02:39:18;;;;;;;4.30;3.80;;;20.30;99.90;;;;;;5018996;28;37380;-85
2022/08/14 02:41:51;;;;;;;4.63;3.90;;;20.30;99.90;;;;;;5040908;28;40803;-83
2022/08/14 02:44:22;;;;;;;4.53;3.90;;;20.40;99.90;;;;;;5011207;28;38661;-83
2022/08/14 02:46:50;;;;;;;5.50;3.55;;;20.30;99.90;;;;;;5013091;28;38242;-84
2022/08/14 02:49:16;;;;;;;6.15;3.97;;;20.20;99.90;;;;;;5010554;28;37535;-83
2022/08/14 02:51:47;;;;;;;5.03;3.80;;;20.20;99.90;;;;;;5010352;28;37665;-84
2022/08/14 02:54:14;;;;;;;4.32;3.80;;;20.20;99.90;;;;;;5006417;28;37225;-84
2022/08/14 02:56:41;;;;;;;4.53;3.63;;;20.20;99.90;;;;;;5029623;28;39716;-84
2022/08/14 02:59:09;;;;;;;7.15;4.90;;;20.20;99.90;;;;;;5009660;28;37484;-85
2022/08/14 03:01:35;;;;;;;4.93;4.38;;;20.20;99.90;;;;;;5020461;28;39768;-84
2022/08/14 03:04:04;;;;;;;6.32;3.92;;;20.10;99.90;;;;;;5043114;28;40379;-83
2022/08/14 03:06:31;;;;;;;6.45;4.65;;;20.10;99.90;;;;;;5015000;28;39117;-87
2022/08/14 03:08:58;;;;;;;4.47;3.95;;;20.10;99.90;;;;;;5018516;28;37868;-84
2022/08/14 03:11:25;;;;;;;5.20;4.55;;;20.10;99.90;;;;;;5017805;28;39836;-83
2022/08/14 03:13:51;;;;;;;4.85;4.35;;;20.00;99.90;;;;;;5012837;28;38966;-83
2022/08/14 03:16:21;;;;;;;7.80;4.53;;;19.90;99.90;;;;;;5007631;28;38054;-82
2022/08/14 03:18:52;;;;;;;7.57;4.80;;;19.90;99.90;;;;;;5011084;28;37934;-82
2022/08/14 03:21:21;;;;;;;6.03;4.80;;;19.90;99.90;;;;;;5012232;28;39736;-81
2022/08/14 03:23:56;;;;;;;5.40;4.90;;;19.90;99.90;;;;;;5015593;28;38435;-82
2022/08/14 03:26:26;;;;;;;4.95;4.40;;;19.90;99.90;;;;;;5013627;28;38565;-82
2022/08/14 03:28:52;;;;;;;6.00;5.00;;;19.90;99.90;;;;;;5012055;28;37372;-84
2022/08/14 03:31:21;;;;;;;5.38;4.85;;;19.90;99.90;;;;;;5015614;28;39631;-83
2022/08/14 03:33:47;;;;;;;5.85;5.35;;;19.90;99.90;;;;;;5015655;28;37957;-83
2022/08/14 03:36:15;;;;;;;8.80;6.05;;;19.90;99.90;;;;;;5016154;28;38416;-84
2022/08/14 03:38:44;;;;;;;5.32;4.82;;;19.80;99.90;;;;;;5016836;28;38212;-84
2022/08/14 03:41:17;;;;;;;6.07;5.47;;;19.80;99.90;;;;;;5010867;28;39661;-83
2022/08/14 03:43:49;;;;;;;6.97;5.45;;;19.80;99.90;;;;;;5015131;28;37681;-83
2022/08/14 03:46:16;;;;;;;5.35;4.85;;;19.70;99.90;;;;;;5012796;28;36926;-83
2022/08/14 03:48:44;;;;;;;6.20;5.60;;;19.60;99.90;;;;;;5010450;28;36895;-84
2022/08/14 03:51:12;;;;;;;6.57;5.90;;;19.60;99.90;;;;;;5023081;28;39205;-82
2022/08/14 03:53:40;;;;;;;6.13;5.47;;;19.50;99.90;;;;;;5012025;28;39899;-83
2022/08/14 03:56:12;;;;;;;6.18;5.57;;;19.50;99.90;;;;;;5012245;28;40227;-85
2022/08/14 03:58:45;;;;;;;7.43;5.65;;;19.40;99.90;;;;;;5014085;28;37318;-85
2022/08/14 04:01:12;;;;;;;7.57;5.65;;;19.30;99.90;;;;;;5014235;28;38086;-83
2022/08/14 04:03:38;;;;;;;8.45;5.32;;;19.20;99.90;;;;;;5015088;28;38620;-83
2022/08/14 04:06:07;;;;;;;6.07;5.57;;;19.20;99.90;;;;;;5022163;28;38078;-84
2022/08/14 04:08:37;;;;;;;5.75;5.25;;;19.10;99.90;;;;;;5021522;28;36780;-83
2022/08/14 04:11:05;;;;;;;6.85;6.20;;;19.10;99.90;;;;;;5018815;28;39278;-82
2022/08/14 04:13:34;;;;;;;7.68;6.20;;;19.10;99.90;;;;;;5009017;28;39537;-84
2022/08/14 04:16:03;;;;;;;6.57;5.88;;;19.10;99.90;;;;;;5046400;28;38661;-86
2022/08/14 04:18:31;;;;;;;6.97;6.28;;;19.00;99.90;;;;;;5036434;28;48997;-87
2022/08/14 04:20:58;;;;;;;6.68;6.03;;;18.90;99.90;;;;;;5036515;28;39430;-85
2022/08/14 04:23:25;;;;;;;6.78;6.07;;;18.90;99.90;;;;;;5032835;27;37803;-85
2022/08/14 04:25:54;;;;;;;6.47;5.65;;;18.90;99.90;;;;;;5035260;28;38796;-84
2022/08/14 04:28:21;;;;;;;6.68;6.07;;;18.80;99.90;;;;;;5033878;28;35834;-85
2022/08/14 04:30:47;;;;;;;7.05;6.35;;;18.70;99.90;;;;;;5035653;28;39394;-84
2022/08/14 04:33:15;;;;;;;7.93;6.05;;;18.70;99.90;;;;;;5038549;28;35729;-84
2022/08/14 04:35:41;;;;;;;7.82;6.45;;;18.60;99.90;;;;;;5033731;28;38294;-84
2022/08/14 04:43:39;;;;;;;6.53;5.93;;;18.60;99.90;;;;;;5042410;28;48468;-85
2022/08/14 04:46:11;;;;;;;9.65;7.85;;;18.60;99.90;;;;;;5075688;28;38953;-84
2022/08/14 04:48:39;;;;;;;9.32;6.30;;;18.50;99.90;;;;;;5047814;28;36691;-85
2022/08/14 04:51:10;;;;;;;7.25;6.55;;;18.50;99.90;;;;;;5042170;28;41131;-85
2022/08/14 04:53:42;;;;;;;7.63;6.85;;;18.50;99.90;;;;;;5052329;28;38192;-87
2022/08/14 04:56:10;;;;;;;;;;;18.50;99.90;;;;;;5040678;28;39031;-84
2022/08/14 04:58:37;;;;;;;7.93;7.10;;;18.50;99.90;;;;;;5068393;28;36174;-86
2022/08/14 05:01:06;;;;;;;8.63;7.43;;;18.50;99.90;;;;;;5049823;28;38027;-87
2022/08/14 05:03:34;;;;;;;8.13;7.28;;;18.50;99.90;;;;;;5068479;28;37564;-87
2022/08/14 05:06:06;;;;;;;10.82;7.93;;;18.50;99.90;;;;;;5039685;28;35550;-87
2022/08/14 05:08:33;;;;;;;9.18;8.18;;;18.50;99.90;;;;;;5035238;28;47113;-86
2022/08/14 05:11:03;;;;;;;7.68;6.97;;;18.60;99.90;;;;;;5041110;28;38217;-86
2022/08/14 05:13:30;;;;;;;8.55;7.65;;;18.60;99.90;;;;;;5043785;28;47450;-88
2022/08/14 05:15:58;;;;;;;10.45;7.90;;;18.60;99.90;;;;;;5044818;28;36998;-86
2022/08/14 05:18:26;;;;;;;8.93;8.02;;;18.60;99.90;;;;;;5033056;28;37144;-87
2022/08/14 05:20:55;;;;;;;8.63;7.82;;;18.60;99.90;;;;;;5063464;28;38009;-83
2022/08/14 05:23:26;;;;;;;9.02;7.57;;;18.70;99.90;;;;;;5023717;28;37540;-85
2022/08/14 05:26:04;;;;;;;9.80;8.73;;;18.80;99.90;;;;;;5037661;28;38840;-86
2022/08/14 05:28:34;;;;;;;10.15;9.07;;;18.90;99.90;;;;;;5044191;28;47473;-85
2022/08/14 05:31:05;;;;;;;9.07;8.27;;;18.90;99.90;;;;;;5062089;28;37699;-87
2022/08/14 05:33:33;;;;;;;12.68;9.35;;;19.00;99.90;;;;;;5037995;28;47276;-87
2022/08/14 05:36:03;;;;;;;10.65;9.20;;;19.00;99.90;;;;;;5046888;28;39321;-84
2022/08/14 05:38:36;;;;;;;9.52;8.55;;;19.10;99.90;;;;;;5037940;28;46835;-85
2022/08/14 05:41:04;;;;;;;9.73;8.73;;;19.10;99.90;;;;;;5044731;27;38548;-85
2022/08/14 05:43:30;;;;;;;9.38;8.50;;;19.20;99.90;;;;;;5065303;27;38892;-86
2022/08/14 05:45:58;;;;;;;10.27;8.90;;;19.20;99.90;;;;;;5032628;28;38653;-83
2022/08/14 05:48:24;;;;;;;9.43;8.48;;;19.30;99.90;;;;;;5064176;28;36917;-84
2022/08/14 05:50:53;;;;;;;10.43;9.43;;;19.40;99.90;;;;;;5036353;28;39399;-85
2022/08/14 05:53:21;;;;;;;9.35;8.45;;;19.50;99.90;;;;;;5030894;28;39196;-83
2022/08/14 05:55:48;;;;;;;9.20;7.65;;;19.50;99.90;;;;;;5030287;28;37570;-83
2022/08/14 05:58:15;;;;;;;9.75;8.23;;;19.60;99.90;;;;;;5033839;27;37878;-82
2022/08/14 06:00:43;;;;;;;12.68;8.85;;;19.70;99.90;;;;;;5029381;28;39636;-83
2022/08/14 06:03:15;;;;;;;9.00;8.20;;;19.70;99.90;;;;;;5059439;28;39456;-84
2022/08/14 06:05:45;;;;;;;;;;;19.80;99.90;;;;;;5063430;28;38457;-85
2022/08/14 06:08:19;;;;;;;11.80;9.07;;;19.90;99.90;;;;;;5042000;28;39536;-83
2022/08/14 06:10:45;;;;;;;10.23;9.23;;;19.90;99.90;;;;;;5044411;28;40248;-83
2022/08/14 06:13:13;;;;;;;10.05;7.95;;;20.00;99.90;;;;;;5037989;28;39883;-83
2022/08/14 06:15:40;;;;;;;9.30;8.40;;;20.10;99.90;;;;;;5031750;28;39037;-81
2022/08/14 06:18:08;;;;;;;13.18;8.70;;;20.10;99.90;;;;;;5040675;28;38093;-83
2022/08/14 06:20:34;;;;;;;10.50;9.45;;;20.20;99.90;;;;;;5035973;28;40078;-84
2022/08/14 06:23:01;;;;;;;10.18;9.00;;;20.40;99.90;;;;;;5036276;28;39885;-84
2022/08/14 06:25:27;;;;;;;9.73;8.75;;;20.50;99.90;;;;;;5038999;28;47533;-83
2022/08/14 06:27:53;;;;;;;11.82;8.85;;;20.50;99.90;;;;;;5043765;28;38154;-85
2022/08/14 06:30:22;;;;;;;8.02;7.22;;;20.60;99.90;;;;;;5040627;27;38727;-83
2022/08/14 06:32:49;;;;;;;8.38;7.43;;;21.10;99.90;;;;;;5033546;28;39297;-82
2022/08/14 06:35:24;;;;;;;11.07;8.02;;;21.40;99.90;;;;;;5035604;28;37030;-81
2022/08/14 06:37:53;;;;;;;8.13;7.32;;;21.60;99.90;;;;;;5030033;28;37822;-82
2022/08/14 06:40:25;;;;;;;10.02;7.40;;;22.00;99.90;;;;;;5035611;28;38150;-81
2022/08/14 06:42:52;;;;;;;9.30;8.40;;;22.20;99.90;;;;;;5045404;28;37733;-83
2022/08/14 06:45:18;;;;;;;9.27;8.25;;;22.30;99.90;;;;;;5041793;27;38227;-84
2022/08/14 06:47:46;;;;;;;9.98;7.13;;;22.40;99.90;;;;;;5030288;28;35853;-84
2022/08/14 06:50:14;;;;;;;8.27;7.07;;;22.40;99.90;;;;;;5033005;28;38090;-83
2022/08/14 06:52:41;;;;;;;8.45;7.65;;;22.40;99.90;;;;;;5029759;28;37148;-83
2022/08/14 06:55:09;;;;;;;8.45;7.65;;;22.50;99.90;;;;;;5069651;27;36876;-83
2022/08/14 06:57:41;;;;;;;7.63;6.72;;;22.50;99.90;;;;;;5028759;28;38814;-84
2022/08/14 07:00:09;;;;;;;;;;;22.60;99.90;;;;;;5029299;28;37799;-83
2022/08/14 07:08:05;;;;;;;9.95;6.55;;;23.10;99.90;;;;;;5031011;28;38509;-82
2022/08/14 07:10:32;;;;;;;8.90;6.57;;;23.30;99.90;;;;;;5033327;28;37618;-85
2022/08/14 07:12:58;;;;;;;8.60;6.43;;;23.50;99.90;;;;;;5036400;28;38201;-82
2022/08/14 07:15:24;;;;;;;7.32;6.00;;;23.60;99.90;;;;;;5032512;28;36933;-83
2022/08/14 07:17:50;;;;;;;8.07;6.38;;;23.90;99.90;;;;;;5031942;28;37416;-83
2022/08/14 07:20:19;;;;;;;8.05;7.05;;;24.00;99.90;;;;;;5063671;28;38008;-82
2022/08/14 07:22:46;;;;;;;10.05;7.07;;;24.20;99.90;;;;;;5034971;28;37040;-82
2022/08/14 07:25:13;;;;;;;7.05;6.35;;;24.40;99.90;;;;;;5040693;28;38274;-83
2022/08/14 07:27:39;;;;;;;9.05;7.30;;;24.50;99.90;;;;;;5035989;28;37021;-82
2022/08/14 07:30:06;;;;;;;6.90;6.20;;;24.60;99.90;;;;;;5064571;28;35870;-80
2022/08/14 07:32:32;;;;;;;5.63;5.13;;;24.70;99.90;;;;;;5037903;28;37439;-82
2022/08/14 07:35:00;;;;;;;7.70;5.90;;;24.90;99.90;;;;;;5042043;28;37771;-81
2022/08/14 07:37:27;;;;;;;6.57;5.93;;;25.20;99.90;;;;;;5044959;28;36106;-80
2022/08/14 07:39:53;;;;;;;8.82;5.82;;;25.30;99.90;;;;;;5074143;28;39084;-80
2022/08/14 07:42:19;;;;;;;7.88;5.53;;;25.40;99.90;;;;;;5043911;28;37984;-80
2022/08/14 07:44:51;;;;;;;8.80;5.13;;;25.50;99.90;;;;;;5043156;28;38796;-80
2022/08/14 07:47:17;;;;;;;8.20;5.43;;;25.50;99.90;;;;;;5051815;27;36083;-80
2022/08/14 07:50:06;;;;;;;7.97;5.72;;;25.60;99.90;;;;;;5039362;28;37628;-79
2022/08/14 07:52:33;;;;;;;5.63;5.13;;;25.60;99.90;;;;;;5045451;28;48654;-79
2022/08/14 07:55:00;;;;;;;8.10;4.70;;;25.90;99.90;;;;;;5049869;28;37139;-79
2022/08/14 07:57:26;;;;;;;5.25;4.75;;;26.20;99.90;;;;;;5050247;27;37873;-80
2022/08/14 07:59:53;;;;;;;7.28;4.10;;;26.30;99.90;;;;;;5048652;28;38117;-79
2022/08/14 08:02:20;;;;;;;6.10;5.18;;;26.60;99.90;;;;;;5043689;28;37578;-80
2022/08/14 08:04:52;;;;;;;7.10;4.97;;;26.80;99.90;;;;;;5080205;28;38078;-79
2022/08/14 08:07:20;;;;;;;5.32;4.57;;;26.90;99.90;;;;;;5041923;28;36113;-80
2022/08/14 08:09:55;;;;;;;8.27;4.25;;;26.90;99.90;;;;;;5070919;28;38902;-80
2022/08/14 08:12:21;;;;;;;8.00;4.82;;;27.20;99.90;;;;;;5041597;28;38685;-78
2022/08/14 08:14:50;;;;;;;5.50;3.85;;;27.30;99.90;;;;;;5039179;28;38586;-80
2022/08/14 08:17:22;;;;;;;6.80;3.85;;;27.50;99.90;;;;;;5039109;28;37362;-81
2022/08/14 08:19:48;;;;;;;;;;;27.50;99.90;;;;;;5045875;28;37593;-81
2022/08/14 08:22:14;;;;;;;9.00;4.53;;;27.70;99.90;;;;;;5043651;28;38534;-80
2022/08/14 08:24:40;;;;;;;9.00;3.78;;;27.60;99.90;;;;;;5036867;28;36969;-78
2022/08/14 08:27:17;;;;;;;5.80;4.07;;;27.80;99.90;;;;;;5038210;28;37393;-79
2022/08/14 08:29:43;;;;;;;7.60;3.70;;;28.00;99.90;;;;;;5043332;27;38862;-80
2022/08/14 08:32:09;;;;;;;4.43;3.40;;;28.00;99.90;;;;;;5052627;28;37399;-80
2022/08/14 08:34:44;;;;;;;4.47;4.07;;;28.20;99.90;;;;;;5025022;28;38648;-79
2022/08/14 08:37:11;;;;;;;5.80;3.40;;;28.20;99.90;;;;;;5017618;28;37826;-80
2022/08/14 08:39:45;;;;;;;4.22;3.38;;;28.30;99.90;;;;;;5021337;28;39196;-77
2022/08/14 08:42:11;;;;;;;3.58;3.28;;;28.40;99.90;;;;;;5014797;28;38852;-79
2022/08/14 08:44:37;;;;;;;3.78;3.47;;;28.50;99.90;;;;;;5027992;28;37115;-78
2022/08/14 08:47:04;;;;;;;6.03;3.35;;;28.70;99.90;;;;;;5020099;27;37435;-79
2022/08/14 08:49:41;;;;;;;6.10;3.67;;;28.70;99.90;;;;;;5017621;28;39030;-78
2022/08/14 08:52:08;;;;;;;3.53;2.78;;;28.80;99.90;;;;;;5029726;28;37439;-78
2022/08/14 08:54:34;;;;;;;4.45;3.70;;;28.90;99.90;;;;;;5008505;28;37893;-78
2022/08/14 08:57:02;;;;;;;3.08;2.55;;;28.90;99.90;;;;;;5012806;28;37722;-79
2022/08/14 08:59:30;;;;;;;8.73;3.28;;;28.90;99.90;;;;;;5013713;28;46992;-79
2022/08/14 09:02:08;;;;;;;3.95;3.40;;;29.10;99.90;;;;;;5051965;28;38463;-78
2022/08/14 09:04:46;;;;;;;6.85;3.15;;;29.00;99.90;;;;;;5032601;28;47350;-78
2022/08/14 09:07:13;;;;;;;3.58;3.08;;;29.10;99.90;;;;;;5075803;28;38424;-78
2022/08/14 09:09:50;;;;;;;4.57;3.22;;;28.90;99.90;;;;;;5048762;28;40323;-78
2022/08/14 09:12:17;;;;;;;4.40;3.08;;;29.00;99.90;;;;;;5037108;28;39491;-77
2022/08/14 09:14:46;;;;;;;6.93;2.95;;;29.40;99.90;;;;;;5027721;28;38481;-78
2022/08/14 09:17:12;;;;;;;5.40;3.38;;;29.80;99.90;;;;;;5040132;28;38752;-79
2022/08/14 09:19:39;;;;;;;3.47;3.17;;;30.00;99.90;;;;;;5028398;28;39867;-78
2022/08/14 09:22:05;;;;;;;4.68;2.80;;;30.30;99.90;;;;;;5042550;28;37379;-79
2022/08/14 09:24:32;;;;;;;4.85;2.80;;;30.30;99.90;;;;;;5032767;28;36687;-78
2022/08/14 09:26:58;;;;;;;6.15;3.08;;;30.10;99.90;;;;;;5030785;28;38700;-79
2022/08/14 09:29:24;;;;;;;2.80;2.60;;;29.90;99.90;;;;;;5019496;28;40750;-78
2022/08/14 09:31:57;;;;;;;3.25;2.67;;;29.90;99.90;;;;;;5046815;28;38501;-79
2022/08/14 09:34:35;;;;;;;3.83;2.58;;;30.40;99.90;;;;;;5023681;28;38028;-78
2022/08/14 09:37:30;;;;;;;5.50;2.72;;;30.90;99.90;;;;;;5026323;28;37541;-78
2022/08/14 09:40:11;;;;;;;6.20;2.60;;;30.90;99.90;;;;;;5015360;28;39704;-78
2022/08/14 09:42:57;;;;;;;2.60;2.40;;;30.70;99.90;;;;;;5045043;28;47254;-78
2022/08/14 09:45:46;;;;;;;2.53;2.33;;;30.90;99.90;;;;;;5041361;28;37669;-78
2022/08/14 09:48:20;;;;;;;3.72;2.80;;;30.90;99.90;;;;;;5039125;28;38176;-78
2022/08/14 09:50:53;;;;;;;4.35;2.50;;;31.00;99.90;;;;;;5040659;28;38591;-78
2022/08/14 09:53:41;;;;;;;5.20;2.88;;;31.10;99.90;;;;;;5030014;27;38219;-79
2022/08/14 09:56:07;;;;;;;2.63;2.42;;;31.20;99.90;;;;;;5045309;27;36885;-77
2022/08/14 09:58:38;;;;;;;3.20;2.50;;;31.50;99.90;;;;;;5048217;28;37967;-79
2022/08/14 10:01:15;;;;;;;4.18;2.17;;;31.50;99.90;;;;;;5072420;27;39529;-78
2022/08/14 10:03:54;;;;;;;2.50;2.30;;;31.60;99.90;;;;;;5041662;28;38716;-78
2022/08/14 10:06:25;;;;;;;2.30;2.10;;;31.60;99.90;;;;;;5047305;27;40024;-78
2022/08/14 10:09:03;;;;;;;2.13;1.80;;;31.40;99.90;;;;;;5044283;28;37091;-78
2022/08/14 10:11:36;;;;;;;1.85;1.75;;;31.60;99.90;;;;;;5040664;28;47613;-78
2022/08/14 10:14:15;;;;;;;2.22;2.03;;;31.90;99.90;;;;;;5041165;27;37572;-76
2022/08/14 10:16:45;;;;;;;1.90;1.80;;;32.30;99.90;;;;;;5038902;28;37876;-76
2022/08/14 10:19:14;;;;;;;2.30;2.10;;;32.00;99.90;;;;;;5045444;27;36477;-75
2022/08/14 10:21:42;;;;;;;2.45;2.25;;;32.00;99.90;;;;;;5049173;28;39092;-76
2022/08/14 10:24:23;;;;;;;1.70;1.60;;;31.90;99.90;;;;;;5042153;27;37285;-77
2022/08/14 10:26:57;;;;;;;5.00;1.88;;;31.90;99.90;;;;;;5070372;28;36876;-76
2022/08/14 10:29:39;;;;;;;2.30;2.10;;;32.00;99.90;;;;;;5042980;28;37215;-77
2022/08/14 10:32:08;;;;;;;4.03;1.85;;;31.50;99.90;;;;;;5043049;28;39216;-77
2022/08/14 10:34:39;;;;;;;4.22;1.95;;;31.70;99.90;;;;;;5039875;27;38425;-78
2022/08/14 10:37:13;;;;;;;2.30;1.70;;;31.80;99.90;;;;;;5047710;27;37674;-77
2022/08/14 10:39:41;;;;;;;4.80;2.00;;;32.00;99.90;;;;;;5039965;28;35977;-77
2022/08/14 10:42:12;;;;;;;3.65;2.33;;;32.10;99.90;;;;;;5042114;27;38925;-77
2022/08/14 10:44:44;;;;;;;4.22;1.77;;;31.80;99.90;;;;;;5035375;28;38750;-78
2022/08/14 10:47:12;;;;;;;3.67;2.00;;;31.50;99.90;;;;;;5030890;28;38371;-77
2022/08/14 10:49:48;;;;;;;2.05;1.67;;;31.60;99.90;;;;;;5031434;28;37289;-77
2022/08/14 10:52:33;;;;;;;5.63;2.15;;;31.90;99.90;;;;;;5033836;28;39735;-78
2022/08/14 10:55:14;;;;;;;2.15;1.95;;;32.20;99.90;;;;;;5021903;28;38596;-78
2022/08/14 10:57:52;;;;;;;3.92;2.00;;;32.20;99.90;;;;;;5020603;28;49546;-77
2022/08/14 11:00:25;;;;;;;3.25;2.05;;;32.10;99.90;;;;;;5024977;27;38147;-77
2022/08/14 11:03:08;;;;;;;2.05;1.63;;;32.70;99.90;;;;;;5019368;28;39601;-77
2022/08/14 11:05:41;;;;;;;2.00;1.70;;;32.50;99.90;;;;;;5025652;28;47237;-78
2022/08/14 11:08:09;;;;;;;2.53;1.88;;;32.60;99.90;;;;;;5036139;28;37249;-78
2022/08/14 11:10:43;;;;;;;5.50;2.30;;;32.80;99.90;;;;;;5031585;28;39770;-77
2022/08/14 11:13:14;;;;;;;2.35;2.15;;;32.50;99.90;;;;;;5019971;28;39538;-78
2022/08/14 11:15:40;;;;;;;4.20;2.03;;;32.10;99.90;;;;;;5029488;28;38860;-78
2022/08/14 11:18:07;;;;;;;2.60;2.13;;;32.20;99.90;;;;;;5030055;28;38953;-78
2022/08/14 11:20:37;;;;;;;2.47;1.65;;;32.50;99.90;;;;;;5031543;28;36585;-77
2022/08/14 11:23:08;;;;;;;1.90;1.80;;;32.80;99.90;;;;;;5044720;28;40608;-77
2022/08/14 11:25:36;;;;;;;3.03;1.98;;;33.30;99.90;;;;;;5024892;28;39322;-77
2022/08/14 11:28:04;;;;;;;2.97;1.92;;;33.40;99.90;;;;;;5029450;27;38357;-77
2022/08/14 11:30:31;;;;;;;2.28;2.08;;;33.30;99.90;;;;;;5040602;28;38088;-79
2022/08/14 11:32:57;;;;;;;3.25;1.90;;;33.30;99.90;;;;;;5025669;28;39546;-76
2022/08/14 11:35:27;;;;;;;2.88;2.17;;;33.20;99.90;;;;;;5026034;28;39164;-78
2022/08/14 11:37:58;;;;;;;2.22;2.00;;;33.10;99.90;;;;;;5030558;27;39293;-77
2022/08/14 11:40:26;;;;;;;1.58;1.48;;;32.80;99.90;;;;;;5067414;28;37708;-77
2022/08/14 11:42:54;;;;;;;1.90;1.80;;;33.10;99.90;;;;;;5026098;28;40864;-78
2022/08/14 11:45:23;;;;;;;5.28;1.70;;;33.30;99.90;;;;;;5023037;28;38296;-77
2022/08/14 11:47:51;;;;;;;2.33;1.80;;;33.40;99.90;;;;;;5020814;28;37770;-76
2022/08/14 11:50:26;;;;;;;3.15;2.05;;;33.30;99.90;;;;;;5020183;28;36191;-76
2022/08/14 11:52:55;;;;;;;4.22;1.92;;;33.50;99.90;;;;;;5023013;27;38571;-77
2022/08/14 11:55:22;;;;;;;2.10;1.60;;;33.60;99.90;;;;;;5063557;28;38198;-76
2022/08/14 11:58:03;;;;;;;3.17;1.65;;;33.40;99.90;;;;;;5029697;28;38517;-76
2022/08/14 12:00:32;;;;;;;3.15;1.70;;;33.30;99.90;;;;;;5024890;28;48057;-77
2022/08/14 12:03:00;;;;;;;3.17;1.90;;;33.80;99.90;;;;;;5034402;28;38657;-77
2022/08/14 12:05:38;;;;;;;2.08;1.80;;;33.40;99.90;;;;;;5029580;28;38540;-77
2022/08/14 12:08:08;;;;;;;3.53;1.83;;;33.60;99.90;;;;;;5070414;28;38713;-76
2022/08/14 12:10:36;;;;;;;1.83;1.63;;;33.80;99.90;;;;;;5038288;28;37013;-76
2022/08/14 12:13:18;;;;;;;1.23;1.13;;;34.10;99.90;;;;;;5042627;28;38642;-78
2022/08/14 12:15:51;;;;;;;2.28;1.50;;;33.60;99.90;;;;;;5030026;28;39592;-77
2022/08/14 12:18:29;;;;;;;3.45;1.60;;;33.10;99.90;;;;;;5041115;28;37947;-76
2022/08/14 12:21:09;;;;;;;1.73;1.60;;;33.50;99.90;;;;;;5041503;28;20597;-76
2022/08/14 12:23:35;;;;;;;3.67;1.75;;;33.90;99.90;;;;;;5074673;27;46581;-77
2022/08/14 12:26:03;;;;;;;1.80;1.30;;;34.10;99.90;;;;;;5050926;28;37169;-76
2022/08/14 12:28:29;;;;;;;2.08;1.80;;;34.00;99.90;;;;;;5022928;28;47573;-77
2022/08/14 12:30:55;;;;;;;4.75;1.70;;;33.80;99.90;;;;;;5026105;28;38163;-78
2022/08/14 12:33:31;;;;;;;2.72;1.60;;;33.80;99.90;;;;;;5019541;28;38561;-77
2022/08/14 12:35:59;;;;;;;2.10;1.90;;;33.70;99.40;;;;;;5026870;28;37615;-76
2022/08/14 12:38:40;;;;;;;1.67;1.58;;;33.60;99.90;;;;;;5026025;28;37587;-76
2022/08/14 12:41:10;;;;;;;2.17;1.67;;;33.70;99.90;;;;;;5023012;28;37841;-76
2022/08/14 12:43:50;;;;;;;2.72;1.70;;;34.10;99.90;;;;;;5026115;28;41665;-77
2022/08/14 12:46:45;;;;;;;1.80;1.70;;;34.50;99.80;;;;;;5022362;28;39336;-76
2022/08/14 12:49:16;;;;;;;2.33;2.13;;;34.80;99.90;;;;;;5016531;28;38131;-78
2022/08/14 12:51:53;;;;;;;2.58;1.80;;;34.80;99.90;;;;;;5026690;28;37606;-78
2022/08/14 12:54:20;;;;;;;3.67;2.35;;;34.90;98.60;;;;;;5022319;28;39523;-77
2022/08/14 12:56:46;;;;;;;2.25;1.75;;;34.70;98.10;;;;;;5026874;28;38555;-77
2022/08/14 12:59:13;;;;;;;2.40;2.20;;;34.50;99.90;;;;;;5015328;28;38859;-77
2022/08/14 13:01:41;;;;;;;4.75;2.10;;;34.40;99.90;;;;;;5039923;28;38681;-76
2022/08/14 13:04:11;;;;;;;2.63;2.10;;;34.30;99.90;;;;;;5017453;28;37903;-77
2022/08/14 13:06:39;;;;;;;4.05;2.03;;;33.70;99.90;;;;;;5038618;28;38743;-77
2022/08/14 13:09:08;;;;;;;3.35;1.83;;;33.20;99.90;;;;;;5018814;28;38472;-76
2022/08/14 13:11:45;;;;;;;2.55;1.98;;;33.20;99.90;;;;;;5011518;28;37358;-76
2022/08/14 13:14:24;;;;;;;3.10;2.13;;;33.70;99.90;;;;;;5025282;28;37243;-77